Bethlehem, New Hampshire
Current Conditions -  °F | °C
As of 2:52 AM on Saturday 20 Dec 2014 (Local Time) from KHIE Reporting Station
Overcast Overcast  
Wind Chill: -8°   Ceiling: 1100
Heat Index: -8°   Visibility: 10mi
Dew Point: -11°   Wind: 3mph
Humidity: 84%   Direction: 290°WNW
Pressure: 30.2"   Gusts: NA
Location:  44.28°N, 71.69°W
Report Text: KHIE 200752Z AUTO 29003KT 10SM OVC011 M08/M11 A3020 RMK AO2 SLP245 T10831106
Loading
Personal Weather Stations






























Interactive Weather Map New forecast layout! Learn more

10-Day Weather Forecast

Advertisements
Track Severe Weather on mobile